sensor_id;sensor_type;location;lat;lon;timestamp;P1;durP1;ratioP1;P2;durP2;ratioP2
38111;SDS011;64011;56.312;44.048;2024-03-06T00:01:30;12.18;;;3.67;;
38111;SDS011;64011;56.312;44.048;2024-03-06T00:03:32;12.40;;;3.00;;
38111;SDS011;64011;56.312;44.048;2024-03-06T00:05:33;11.98;;;2.80;;
38111;SDS011;64011;56.312;44.048;2024-03-06T00:07:34;11.25;;;2.95;;
38111;SDS011;64011;56.312;44.048;2024-03-06T00:09:34;9.05;;;2.55;;
38111;SDS011;64011;56.312;44.048;2024-03-06T00:11:36;10.57;;;2.80;;
38111;SDS011;64011;56.312;44.048;2024-03-06T00:13:39;10.48;;;3.10;;
38111;SDS011;64011;56.312;44.048;2024-03-06T00:15:40;10.60;;;2.60;;
38111;SDS011;64011;56.312;44.048;2024-03-06T00:17:40;12.85;;;2.83;;
38111;SDS011;64011;56.312;44.048;2024-03-06T00:19:41;12.38;;;2.60;;
38111;SDS011;64011;56.312;44.048;2024-03-06T00:21:42;10.98;;;2.65;;
38111;SDS011;64011;56.312;44.048;2024-03-06T00:23:43;10.45;;;2.95;;
38111;SDS011;64011;56.312;44.048;2024-03-06T00:25:44;12.25;;;2.60;;
38111;SDS011;64011;56.312;44.048;2024-03-06T00:27:44;9.85;;;2.65;;
38111;SDS011;64011;56.312;44.048;2024-03-06T00:29:47;14.15;;;3.08;;
38111;SDS011;64011;56.312;44.048;2024-03-06T00:31:47;8.30;;;2.70;;
38111;SDS011;64011;56.312;44.048;2024-03-06T00:33:48;12.82;;;2.83;;
38111;SDS011;64011;56.312;44.048;2024-03-06T00:35:50;13.60;;;3.28;;
38111;SDS011;64011;56.312;44.048;2024-03-06T00:37:51;11.85;;;3.00;;
38111;SDS011;64011;56.312;44.048;2024-03-06T00:39:52;11.60;;;2.65;;
38111;SDS011;64011;56.312;44.048;2024-03-06T00:41:53;12.07;;;2.78;;
38111;SDS011;64011;56.312;44.048;2024-03-06T00:43:54;10.77;;;2.72;;
38111;SDS011;64011;56.312;44.048;2024-03-06T00:45:56;10.93;;;3.13;;
38111;SDS011;64011;56.312;44.048;2024-03-06T00:47:57;9.68;;;2.72;;
38111;SDS011;64011;56.312;44.048;2024-03-06T00:49:58;13.50;;;2.95;;
38111;SDS011;64011;56.312;44.048;2024-03-06T00:51:59;10.05;;;3.85;;
38111;SDS011;64011;56.312;44.048;2024-03-06T00:54:00;8.98;;;2.67;;
38111;SDS011;64011;56.312;44.048;2024-03-06T00:56:00;10.00;;;2.80;;
38111;SDS011;64011;56.312;44.048;2024-03-06T00:58:02;8.63;;;2.47;;
38111;SDS011;64011;56.312;44.048;2024-03-06T01:00:03;12.23;;;3.13;;
38111;SDS011;64011;56.312;44.048;2024-03-06T01:02:06;9.55;;;2.65;;
38111;SDS011;64011;56.312;44.048;2024-03-06T01:04:07;13.85;;;3.35;;
38111;SDS011;64011;56.312;44.048;2024-03-06T01:06:08;11.77;;;2.78;;
38111;SDS011;64011;56.312;44.048;2024-03-06T01:08:08;10.52;;;2.90;;
38111;SDS011;64011;56.312;44.048;2024-03-06T01:10:09;11.70;;;3.10;;
38111;SDS011;64011;56.312;44.048;2024-03-06T01:12:10;10.80;;;2.88;;
38111;SDS011;64011;56.312;44.048;2024-03-06T01:14:11;14.50;;;3.55;;
38111;SDS011;64011;56.312;44.048;2024-03-06T01:16:12;9.98;;;3.10;;
38111;SDS011;64011;56.312;44.048;2024-03-06T01:18:14;12.10;;;3.38;;
38111;SDS011;64011;56.312;44.048;2024-03-06T01:20:15;9.52;;;3.00;;
38111;SDS011;64011;56.312;44.048;2024-03-06T01:22:17;9.95;;;2.38;;
38111;SDS011;64011;56.312;44.048;2024-03-06T01:24:18;12.32;;;3.10;;
38111;SDS011;64011;56.312;44.048;2024-03-06T01:26:19;10.90;;;2.83;;
38111;SDS011;64011;56.312;44.048;2024-03-06T01:28:20;11.10;;;3.30;;
38111;SDS011;64011;56.312;44.048;2024-03-06T01:30:21;13.77;;;3.78;;
38111;SDS011;64011;56.312;44.048;2024-03-06T01:32:22;12.00;;;3.55;;
38111;SDS011;64011;56.312;44.048;2024-03-06T01:34:24;12.02;;;3.50;;
38111;SDS011;64011;56.312;44.048;2024-03-06T01:36:26;12.57;;;3.35;;
38111;SDS011;64011;56.312;44.048;2024-03-06T01:38:27;11.20;;;3.22;;
38111;SDS011;64011;56.312;44.048;2024-03-06T01:40:27;11.35;;;3.15;;
38111;SDS011;64011;56.312;44.048;2024-03-06T01:42:28;10.70;;;3.13;;
38111;SDS011;64011;56.312;44.048;2024-03-06T01:44:29;12.13;;;3.03;;
38111;SDS011;64011;56.312;44.048;2024-03-06T01:46:30;13.43;;;3.20;;
38111;SDS011;64011;56.312;44.048;2024-03-06T01:48:31;12.80;;;3.53;;
38111;SDS011;64011;56.312;44.048;2024-03-06T01:50:33;10.80;;;3.17;;
38111;SDS011;64011;56.312;44.048;2024-03-06T01:52:34;9.60;;;2.92;;
38111;SDS011;64011;56.312;44.048;2024-03-06T01:54:35;13.32;;;3.42;;
38111;SDS011;64011;56.312;44.048;2024-03-06T01:56:36;13.02;;;3.30;;
38111;SDS011;64011;56.312;44.048;2024-03-06T01:58:39;12.30;;;3.53;;
38111;SDS011;64011;56.312;44.048;2024-03-06T02:00:41;14.40;;;4.30;;
38111;SDS011;64011;56.312;44.048;2024-03-06T02:02:41;11.45;;;2.92;;
38111;SDS011;64011;56.312;44.048;2024-03-06T02:04:43;11.95;;;3.00;;
38111;SDS011;64011;56.312;44.048;2024-03-06T02:06:45;12.43;;;3.15;;
38111;SDS011;64011;56.312;44.048;2024-03-06T02:08:47;13.43;;;3.53;;
38111;SDS011;64011;56.312;44.048;2024-03-06T02:10:47;12.88;;;3.22;;
38111;SDS011;64011;56.312;44.048;2024-03-06T02:12:48;14.73;;;3.40;;
38111;SDS011;64011;56.312;44.048;2024-03-06T02:14:49;12.43;;;3.22;;
38111;SDS011;64011;56.312;44.048;2024-03-06T02:16:50;11.38;;;2.95;;
38111;SDS011;64011;56.312;44.048;2024-03-06T02:19:11;12.85;;;3.20;;
38111;SDS011;64011;56.312;44.048;2024-03-06T02:21:13;15.98;;;3.60;;
38111;SDS011;64011;56.312;44.048;2024-03-06T02:23:14;13.48;;;3.17;;
38111;SDS011;64011;56.312;44.048;2024-03-06T02:25:15;15.10;;;3.13;;
38111;SDS011;64011;56.312;44.048;2024-03-06T02:27:16;12.30;;;3.15;;
38111;SDS011;64011;56.312;44.048;2024-03-06T02:29:17;10.50;;;3.10;;
38111;SDS011;64011;56.312;44.048;2024-03-06T02:31:18;17.42;;;3.60;;
38111;SDS011;64011;56.312;44.048;2024-03-06T02:33:20;10.00;;;3.20;;
38111;SDS011;64011;56.312;44.048;2024-03-06T02:35:20;16.40;;;3.85;;
38111;SDS011;64011;56.312;44.048;2024-03-06T02:37:23;13.80;;;4.13;;
38111;SDS011;64011;56.312;44.048;2024-03-06T02:39:23;12.90;;;3.70;;
38111;SDS011;64011;56.312;44.048;2024-03-06T02:41:25;15.63;;;3.55;;
38111;SDS011;64011;56.312;44.048;2024-03-06T02:43:25;13.88;;;3.50;;
38111;SDS011;64011;56.312;44.048;2024-03-06T02:45:26;10.15;;;3.20;;
38111;SDS011;64011;56.312;44.048;2024-03-06T02:47:27;13.32;;;3.90;;
38111;SDS011;64011;56.312;44.048;2024-03-06T02:49:28;13.10;;;3.30;;
38111;SDS011;64011;56.312;44.048;2024-03-06T02:51:29;16.38;;;3.58;;
38111;SDS011;64011;56.312;44.048;2024-03-06T02:53:31;12.45;;;3.38;;
38111;SDS011;64011;56.312;44.048;2024-03-06T02:55:32;12.75;;;3.05;;
38111;SDS011;64011;56.312;44.048;2024-03-06T02:57:33;11.10;;;3.35;;
38111;SDS011;64011;56.312;44.048;2024-03-06T02:59:34;17.25;;;3.53;;
38111;SDS011;64011;56.312;44.048;2024-03-06T03:01:34;12.18;;;3.05;;
38111;SDS011;64011;56.312;44.048;2024-03-06T03:03:35;12.35;;;3.50;;
38111;SDS011;64011;56.312;44.048;2024-03-06T03:05:36;12.48;;;3.13;;
38111;SDS011;64011;56.312;44.048;2024-03-06T03:07:37;12.40;;;3.42;;
38111;SDS011;64011;56.312;44.048;2024-03-06T03:09:39;11.15;;;3.00;;
38111;SDS011;64011;56.312;44.048;2024-03-06T03:11:41;15.63;;;3.00;;
38111;SDS011;64011;56.312;44.048;2024-03-06T03:13:42;13.15;;;3.15;;
38111;SDS011;64011;56.312;44.048;2024-03-06T03:15:43;11.68;;;2.83;;
38111;SDS011;64011;56.312;44.048;2024-03-06T03:17:44;12.55;;;3.03;;
38111;SDS011;64011;56.312;44.048;2024-03-06T03:19:45;13.65;;;2.83;;
38111;SDS011;64011;56.312;44.048;2024-03-06T03:21:45;11.05;;;2.88;;
38111;SDS011;64011;56.312;44.048;2024-03-06T03:23:46;12.05;;;2.67;;
38111;SDS011;64011;56.312;44.048;2024-03-06T03:25:49;10.23;;;2.67;;
38111;SDS011;64011;56.312;44.048;2024-03-06T03:27:50;12.60;;;3.40;;
38111;SDS011;64011;56.312;44.048;2024-03-06T03:29:51;11.57;;;3.00;;
38111;SDS011;64011;56.312;44.048;2024-03-06T03:31:52;10.40;;;2.85;;
38111;SDS011;64011;56.312;44.048;2024-03-06T03:33:52;12.68;;;3.40;;
38111;SDS011;64011;56.312;44.048;2024-03-06T03:35:53;15.27;;;3.83;;
38111;SDS011;64011;56.312;44.048;2024-03-06T03:37:54;11.18;;;3.28;;
38111;SDS011;64011;56.312;44.048;2024-03-06T03:39:55;14.23;;;3.47;;
38111;SDS011;64011;56.312;44.048;2024-03-06T03:41:57;13.95;;;3.92;;
38111;SDS011;64011;56.312;44.048;2024-03-06T03:43:58;13.02;;;3.78;;
38111;SDS011;64011;56.312;44.048;2024-03-06T03:45:59;14.48;;;3.83;;
38111;SDS011;64011;56.312;44.048;2024-03-06T03:48:00;16.65;;;4.30;;
38111;SDS011;64011;56.312;44.048;2024-03-06T03:50:00;17.60;;;4.05;;
38111;SDS011;64011;56.312;44.048;2024-03-06T03:52:04;17.20;;;4.18;;
38111;SDS011;64011;56.312;44.048;2024-03-06T03:54:05;13.45;;;3.53;;
38111;SDS011;64011;56.312;44.048;2024-03-06T03:56:06;15.02;;;4.15;;
38111;SDS011;64011;56.312;44.048;2024-03-06T03:58:09;16.45;;;3.75;;
38111;SDS011;64011;56.312;44.048;2024-03-06T04:00:10;15.85;;;3.05;;
38111;SDS011;64011;56.312;44.048;2024-03-06T04:02:11;11.52;;;2.80;;
38111;SDS011;64011;56.312;44.048;2024-03-06T04:04:12;11.30;;;2.72;;
38111;SDS011;64011;56.312;44.048;2024-03-06T04:06:13;13.60;;;2.95;;
38111;SDS011;64011;56.312;44.048;2024-03-06T04:08:14;9.98;;;2.80;;
38111;SDS011;64011;56.312;44.048;2024-03-06T04:10:15;12.45;;;3.00;;
38111;SDS011;64011;56.312;44.048;2024-03-06T04:12:16;13.45;;;4.32;;
38111;SDS011;64011;56.312;44.048;2024-03-06T04:14:18;12.98;;;4.13;;
38111;SDS011;64011;56.312;44.048;2024-03-06T04:16:19;10.52;;;2.88;;
38111;SDS011;64011;56.312;44.048;2024-03-06T04:18:20;12.23;;;3.13;;
38111;SDS011;64011;56.312;44.048;2024-03-06T04:20:21;11.55;;;3.08;;
38111;SDS011;64011;56.312;44.048;2024-03-06T04:22:22;10.63;;;3.05;;
38111;SDS011;64011;56.312;44.048;2024-03-06T04:24:22;8.15;;;2.83;;
38111;SDS011;64011;56.312;44.048;2024-03-06T04:26:23;9.63;;;3.00;;
38111;SDS011;64011;56.312;44.048;2024-03-06T04:28:24;11.52;;;3.08;;
38111;SDS011;64011;56.312;44.048;2024-03-06T04:30:26;10.38;;;2.88;;
38111;SDS011;64011;56.312;44.048;2024-03-06T04:32:27;12.13;;;2.67;;
38111;SDS011;64011;56.312;44.048;2024-03-06T04:34:28;10.88;;;2.95;;
38111;SDS011;64011;56.312;44.048;2024-03-06T04:36:29;14.23;;;3.20;;
38111;SDS011;64011;56.312;44.048;2024-03-06T04:38:30;11.75;;;3.13;;
38111;SDS011;64011;56.312;44.048;2024-03-06T04:40:30;9.82;;;2.72;;
38111;SDS011;64011;56.312;44.048;2024-03-06T04:42:31;9.57;;;2.63;;
38111;SDS011;64011;56.312;44.048;2024-03-06T04:44:33;9.25;;;2.78;;
38111;SDS011;64011;56.312;44.048;2024-03-06T04:46:35;14.25;;;3.03;;
38111;SDS011;64011;56.312;44.048;2024-03-06T04:48:36;12.02;;;2.88;;
38111;SDS011;64011;56.312;44.048;2024-03-06T04:50:37;11.80;;;3.33;;
38111;SDS011;64011;56.312;44.048;2024-03-06T04:52:37;12.38;;;2.95;;
38111;SDS011;64011;56.312;44.048;2024-03-06T04:54:38;12.38;;;2.70;;
38111;SDS011;64011;56.312;44.048;2024-03-06T04:56:39;15.40;;;3.20;;
38111;SDS011;64011;56.312;44.048;2024-03-06T04:58:40;13.27;;;3.30;;
38111;SDS011;64011;56.312;44.048;2024-03-06T05:00:41;8.88;;;2.75;;
38111;SDS011;64011;56.312;44.048;2024-03-06T05:02:43;11.10;;;2.92;;
38111;SDS011;64011;56.312;44.048;2024-03-06T05:04:44;12.80;;;2.80;;
38111;SDS011;64011;56.312;44.048;2024-03-06T05:06:45;11.23;;;3.40;;
38111;SDS011;64011;56.312;44.048;2024-03-06T05:08:46;10.52;;;3.22;;
38111;SDS011;64011;56.312;44.048;2024-03-06T05:10:47;10.20;;;3.20;;
38111;SDS011;64011;56.312;44.048;2024-03-06T05:12:47;11.13;;;3.00;;
38111;SDS011;64011;56.312;44.048;2024-03-06T05:14:48;12.63;;;2.78;;
38111;SDS011;64011;56.312;44.048;2024-03-06T05:16:49;8.88;;;2.95;;
38111;SDS011;64011;56.312;44.048;2024-03-06T05:18:52;9.00;;;2.60;;
38111;SDS011;64011;56.312;44.048;2024-03-06T05:20:52;10.07;;;2.85;;
38111;SDS011;64011;56.312;44.048;2024-03-06T05:22:53;12.70;;;3.67;;
38111;SDS011;64011;56.312;44.048;2024-03-06T05:24:54;17.85;;;6.85;;
38111;SDS011;64011;56.312;44.048;2024-03-06T05:26:55;12.55;;;3.38;;
38111;SDS011;64011;56.312;44.048;2024-03-06T05:28:56;9.88;;;2.90;;
38111;SDS011;64011;56.312;44.048;2024-03-06T05:30:57;15.45;;;3.47;;
38111;SDS011;64011;56.312;44.048;2024-03-06T05:32:58;9.80;;;2.83;;
38111;SDS011;64011;56.312;44.048;2024-03-06T05:35:00;11.55;;;3.33;;
38111;SDS011;64011;56.312;44.048;2024-03-06T05:37:01;11.20;;;3.42;;
38111;SDS011;64011;56.312;44.048;2024-03-06T05:39:02;11.70;;;3.58;;
38111;SDS011;64011;56.312;44.048;2024-03-06T05:41:03;10.98;;;3.50;;
38111;SDS011;64011;56.312;44.048;2024-03-06T05:43:04;12.55;;;3.80;;
38111;SDS011;64011;56.312;44.048;2024-03-06T05:45:05;12.20;;;3.45;;
38111;SDS011;64011;56.312;44.048;2024-03-06T05:47:07;12.73;;;3.65;;
38111;SDS011;64011;56.312;44.048;2024-03-06T05:49:08;12.38;;;3.30;;
38111;SDS011;64011;56.312;44.048;2024-03-06T05:51:10;15.85;;;4.18;;
38111;SDS011;64011;56.312;44.048;2024-03-06T05:53:11;10.48;;;3.45;;
38111;SDS011;64011;56.312;44.048;2024-03-06T05:55:12;11.95;;;4.20;;
38111;SDS011;64011;56.312;44.048;2024-03-06T05:57:12;13.88;;;4.15;;
38111;SDS011;64011;56.312;44.048;2024-03-06T05:59:13;12.95;;;3.95;;
38111;SDS011;64011;56.312;44.048;2024-03-06T06:01:14;13.30;;;3.78;;
38111;SDS011;64011;56.312;44.048;2024-03-06T06:03:16;14.43;;;3.97;;
38111;SDS011;64011;56.312;44.048;2024-03-06T06:05:17;16.60;;;3.67;;
38111;SDS011;64011;56.312;44.048;2024-03-06T06:07:19;17.48;;;4.10;;
38111;SDS011;64011;56.312;44.048;2024-03-06T06:09:20;14.50;;;3.90;;
38111;SDS011;64011;56.312;44.048;2024-03-06T06:11:21;13.52;;;4.20;;
38111;SDS011;64011;56.312;44.048;2024-03-06T06:13:21;11.48;;;3.60;;
38111;SDS011;64011;56.312;44.048;2024-03-06T06:15:22;14.13;;;4.00;;
38111;SDS011;64011;56.312;44.048;2024-03-06T06:17:23;15.43;;;4.20;;
38111;SDS011;64011;56.312;44.048;2024-03-06T06:19:24;12.80;;;3.97;;
38111;SDS011;64011;56.312;44.048;2024-03-06T06:21:25;17.35;;;4.10;;
38111;SDS011;64011;56.312;44.048;2024-03-06T06:23:27;15.05;;;3.83;;
38111;SDS011;64011;56.312;44.048;2024-03-06T06:25:28;11.55;;;3.60;;
38111;SDS011;64011;56.312;44.048;2024-03-06T06:27:28;12.70;;;3.65;;
38111;SDS011;64011;56.312;44.048;2024-03-06T06:29:29;13.10;;;3.92;;
38111;SDS011;64011;56.312;44.048;2024-03-06T06:31:30;13.43;;;3.92;;
38111;SDS011;64011;56.312;44.048;2024-03-06T06:33:31;10.60;;;3.42;;
38111;SDS011;64011;56.312;44.048;2024-03-06T06:35:32;16.17;;;4.55;;
38111;SDS011;64011;56.312;44.048;2024-03-06T06:37:33;13.00;;;4.15;;
38111;SDS011;64011;56.312;44.048;2024-03-06T06:39:35;14.90;;;4.38;;
38111;SDS011;64011;56.312;44.048;2024-03-06T06:41:36;13.68;;;3.85;;
38111;SDS011;64011;56.312;44.048;2024-03-06T06:43:37;13.57;;;4.18;;
38111;SDS011;64011;56.312;44.048;2024-03-06T06:45:38;16.45;;;4.57;;
38111;SDS011;64011;56.312;44.048;2024-03-06T06:47:39;14.07;;;4.25;;
38111;SDS011;64011;56.312;44.048;2024-03-06T06:49:39;15.52;;;4.38;;
38111;SDS011;64011;56.312;44.048;2024-03-06T06:51:41;16.05;;;5.18;;
38111;SDS011;64011;56.312;44.048;2024-03-06T06:53:42;16.65;;;4.05;;
38111;SDS011;64011;56.312;44.048;2024-03-06T06:55:44;16.80;;;4.45;;
38111;SDS011;64011;56.312;44.048;2024-03-06T06:57:45;15.00;;;4.10;;
38111;SDS011;64011;56.312;44.048;2024-03-06T06:59:46;15.63;;;4.50;;
38111;SDS011;64011;56.312;44.048;2024-03-06T07:01:47;13.65;;;4.18;;
38111;SDS011;64011;56.312;44.048;2024-03-06T07:03:48;16.58;;;3.92;;
38111;SDS011;64011;56.312;44.048;2024-03-06T07:05:50;20.90;;;3.85;;
38111;SDS011;64011;56.312;44.048;2024-03-06T07:07:51;20.73;;;4.47;;
38111;SDS011;64011;56.312;44.048;2024-03-06T07:09:52;15.35;;;4.10;;
38111;SDS011;64011;56.312;44.048;2024-03-06T07:11:54;17.40;;;4.18;;
38111;SDS011;64011;56.312;44.048;2024-03-06T07:13:57;17.17;;;4.32;;
38111;SDS011;64011;56.312;44.048;2024-03-06T07:15:57;13.68;;;4.25;;
38111;SDS011;64011;56.312;44.048;2024-03-06T07:17:58;11.90;;;3.63;;
38111;SDS011;64011;56.312;44.048;2024-03-06T07:19:59;15.63;;;4.30;;
38111;SDS011;64011;56.312;44.048;2024-03-06T07:22:00;12.13;;;3.85;;
38111;SDS011;64011;56.312;44.048;2024-03-06T07:24:01;14.27;;;4.63;;
38111;SDS011;64011;56.312;44.048;2024-03-06T07:26:04;17.20;;;4.40;;
38111;SDS011;64011;56.312;44.048;2024-03-06T07:28:09;15.63;;;4.63;;
38111;SDS011;64011;56.312;44.048;2024-03-06T07:30:10;17.25;;;4.45;;
38111;SDS011;64011;56.312;44.048;2024-03-06T07:32:12;13.00;;;3.90;;
38111;SDS011;64011;56.312;44.048;2024-03-06T07:34:13;17.10;;;4.38;;
38111;SDS011;64011;56.312;44.048;2024-03-06T07:36:13;15.32;;;4.50;;
38111;SDS011;64011;56.312;44.048;2024-03-06T07:38:14;15.73;;;4.15;;
38111;SDS011;64011;56.312;44.048;2024-03-06T07:40:15;15.60;;;4.45;;
38111;SDS011;64011;56.312;44.048;2024-03-06T07:42:16;12.77;;;4.32;;
38111;SDS011;64011;56.312;44.048;2024-03-06T07:44:19;16.90;;;4.35;;
38111;SDS011;64011;56.312;44.048;2024-03-06T07:46:20;14.60;;;4.93;;
38111;SDS011;64011;56.312;44.048;2024-03-06T07:48:21;14.52;;;4.20;;
38111;SDS011;64011;56.312;44.048;2024-03-06T07:50:21;14.68;;;4.15;;
38111;SDS011;64011;56.312;44.048;2024-03-06T07:52:22;11.00;;;3.95;;
38111;SDS011;64011;56.312;44.048;2024-03-06T07:54:23;14.65;;;4.15;;
38111;SDS011;64011;56.312;44.048;2024-03-06T07:56:25;11.60;;;4.22;;
38111;SDS011;64011;56.312;44.048;2024-03-06T07:58:26;11.32;;;3.80;;
38111;SDS011;64011;56.312;44.048;2024-03-06T08:00:28;13.48;;;4.03;;
38111;SDS011;64011;56.312;44.048;2024-03-06T08:02:29;12.20;;;3.90;;
38111;SDS011;64011;56.312;44.048;2024-03-06T08:04:29;13.88;;;4.28;;
38111;SDS011;64011;56.312;44.048;2024-03-06T08:06:30;11.57;;;4.35;;
38111;SDS011;64011;56.312;44.048;2024-03-06T08:08:31;10.85;;;3.58;;
38111;SDS011;64011;56.312;44.048;2024-03-06T08:10:32;12.50;;;3.38;;
38111;SDS011;64011;56.312;44.048;2024-03-06T08:12:33;11.45;;;3.42;;
38111;SDS011;64011;56.312;44.048;2024-03-06T08:14:34;10.55;;;2.90;;
38111;SDS011;64011;56.312;44.048;2024-03-06T08:16:36;8.02;;;2.97;;
38111;SDS011;64011;56.312;44.048;2024-03-06T08:18:38;10.10;;;2.88;;
38111;SDS011;64011;56.312;44.048;2024-03-06T08:20:39;8.63;;;2.95;;
38111;SDS011;64011;56.312;44.048;2024-03-06T08:22:40;10.90;;;2.80;;
38111;SDS011;64011;56.312;44.048;2024-03-06T08:24:41;9.25;;;2.80;;
38111;SDS011;64011;56.312;44.048;2024-03-06T08:26:42;10.45;;;2.90;;
38111;SDS011;64011;56.312;44.048;2024-03-06T08:28:43;7.55;;;2.30;;
38111;SDS011;64011;56.312;44.048;2024-03-06T08:30:44;13.68;;;3.28;;
38111;SDS011;64011;56.312;44.048;2024-03-06T08:32:46;8.50;;;2.47;;
38111;SDS011;64011;56.312;44.048;2024-03-06T08:34:47;7.88;;;2.60;;
38111;SDS011;64011;56.312;44.048;2024-03-06T08:36:48;6.55;;;2.25;;
38111;SDS011;64011;56.312;44.048;2024-03-06T08:38:49;8.52;;;2.92;;
38111;SDS011;64011;56.312;44.048;2024-03-06T08:40:50;7.18;;;2.42;;
38111;SDS011;64011;56.312;44.048;2024-03-06T08:42:51;8.07;;;2.22;;
38111;SDS011;64011;56.312;44.048;2024-03-06T08:44:52;7.55;;;2.80;;
38111;SDS011;64011;56.312;44.048;2024-03-06T08:46:52;9.57;;;2.97;;
38111;SDS011;64011;56.312;44.048;2024-03-06T08:48:55;8.13;;;2.45;;
38111;SDS011;64011;56.312;44.048;2024-03-06T08:50:55;10.77;;;2.78;;
38111;SDS011;64011;56.312;44.048;2024-03-06T08:52:56;8.73;;;2.60;;
38111;SDS011;64011;56.312;44.048;2024-03-06T08:54:57;9.38;;;3.03;;
38111;SDS011;64011;56.312;44.048;2024-03-06T08:56:58;7.85;;;2.33;;
38111;SDS011;64011;56.312;44.048;2024-03-06T08:58:59;8.25;;;2.72;;
38111;SDS011;64011;56.312;44.048;2024-03-06T09:00:59;9.32;;;2.63;;
38111;SDS011;64011;56.312;44.048;2024-03-06T09:03:00;9.15;;;2.47;;
38111;SDS011;64011;56.312;44.048;2024-03-06T09:05:03;11.20;;;2.85;;
38111;SDS011;64011;56.312;44.048;2024-03-06T09:07:04;8.80;;;2.50;;
38111;SDS011;64011;56.312;44.048;2024-03-06T09:09:05;7.13;;;2.30;;
38111;SDS011;64011;56.312;44.048;2024-03-06T09:11:06;9.27;;;2.35;;
38111;SDS011;64011;56.312;44.048;2024-03-06T09:13:07;9.30;;;2.63;;
38111;SDS011;64011;56.312;44.048;2024-03-06T09:15:08;7.50;;;2.30;;
38111;SDS011;64011;56.312;44.048;2024-03-06T09:17:10;10.57;;;2.60;;
38111;SDS011;64011;56.312;44.048;2024-03-06T09:19:11;11.32;;;2.50;;
38111;SDS011;64011;56.312;44.048;2024-03-06T09:21:13;8.57;;;2.50;;
38111;SDS011;64011;56.312;44.048;2024-03-06T09:23:14;12.60;;;2.65;;
38111;SDS011;64011;56.312;44.048;2024-03-06T09:25:15;7.72;;;2.20;;
38111;SDS011;64011;56.312;44.048;2024-03-06T09:27:16;6.28;;;2.30;;
38111;SDS011;64011;56.312;44.048;2024-03-06T09:29:18;8.23;;;2.60;;
38111;SDS011;64011;56.312;44.048;2024-03-06T09:31:19;7.43;;;2.65;;
38111;SDS011;64011;56.312;44.048;2024-03-06T09:33:21;7.03;;;2.17;;
38111;SDS011;64011;56.312;44.048;2024-03-06T09:35:25;10.15;;;2.20;;
38111;SDS011;64011;56.312;44.048;2024-03-06T09:37:27;7.95;;;2.17;;
38111;SDS011;64011;56.312;44.048;2024-03-06T09:39:28;6.03;;;1.95;;
38111;SDS011;64011;56.312;44.048;2024-03-06T09:41:30;8.10;;;2.20;;
38111;SDS011;64011;56.312;44.048;2024-03-06T09:43:31;9.52;;;2.13;;
38111;SDS011;64011;56.312;44.048;2024-03-06T09:45:31;6.65;;;2.20;;
38111;SDS011;64011;56.312;44.048;2024-03-06T09:47:32;8.07;;;2.28;;
38111;SDS011;64011;56.312;44.048;2024-03-06T09:49:34;8.60;;;2.50;;
38111;SDS011;64011;56.312;44.048;2024-03-06T09:51:36;5.55;;;2.15;;
38111;SDS011;64011;56.312;44.048;2024-03-06T09:53:38;6.00;;;1.80;;
38111;SDS011;64011;56.312;44.048;2024-03-06T09:55:40;3.97;;;1.80;;
38111;SDS011;64011;56.312;44.048;2024-03-06T09:57:41;7.72;;;2.17;;
38111;SDS011;64011;56.312;44.048;2024-03-06T09:59:42;9.45;;;2.45;;
38111;SDS011;64011;56.312;44.048;2024-03-06T10:01:44;7.57;;;2.15;;
38111;SDS011;64011;56.312;44.048;2024-03-06T10:03:51;6.87;;;2.30;;
38111;SDS011;64011;56.312;44.048;2024-03-06T10:05:51;11.52;;;2.30;;
38111;SDS011;64011;56.312;44.048;2024-03-06T10:07:52;8.70;;;2.10;;
38111;SDS011;64011;56.312;44.048;2024-03-06T10:09:55;9.32;;;2.47;;
38111;SDS011;64011;56.312;44.048;2024-03-06T10:11:55;5.20;;;1.90;;
38111;SDS011;64011;56.312;44.048;2024-03-06T10:13:57;6.85;;;2.15;;
38111;SDS011;64011;56.312;44.048;2024-03-06T10:15:58;9.43;;;2.28;;
38111;SDS011;64011;56.312;44.048;2024-03-06T10:18:12;8.25;;;2.10;;
38111;SDS011;64011;56.312;44.048;2024-03-06T10:20:17;6.85;;;2.10;;
38111;SDS011;64011;56.312;44.048;2024-03-06T10:22:19;8.02;;;2.20;;
38111;SDS011;64011;56.312;44.048;2024-03-06T10:24:21;9.40;;;2.22;;
38111;SDS011;64011;56.312;44.048;2024-03-06T10:26:23;10.52;;;2.10;;
38111;SDS011;64011;56.312;44.048;2024-03-06T10:28:25;11.25;;;2.60;;
38111;SDS011;64011;56.312;44.048;2024-03-06T10:30:26;7.82;;;2.10;;
38111;SDS011;64011;56.312;44.048;2024-03-06T10:32:26;5.43;;;1.90;;
38111;SDS011;64011;56.312;44.048;2024-03-06T10:34:28;6.65;;;1.80;;
38111;SDS011;64011;56.312;44.048;2024-03-06T10:36:31;6.22;;;1.65;;
38111;SDS011;64011;56.312;44.048;2024-03-06T10:38:33;5.80;;;1.88;;
38111;SDS011;64011;56.312;44.048;2024-03-06T10:40:37;5.22;;;1.80;;
38111;SDS011;64011;56.312;44.048;2024-03-06T10:42:40;6.43;;;1.63;;
38111;SDS011;64011;56.312;44.048;2024-03-06T10:44:42;6.15;;;1.60;;
38111;SDS011;64011;56.312;44.048;2024-03-06T10:46:50;3.92;;;1.55;;
38111;SDS011;64011;56.312;44.048;2024-03-06T10:48:56;5.63;;;1.77;;
38111;SDS011;64011;56.312;44.048;2024-03-06T10:50:57;7.63;;;2.00;;
38111;SDS011;64011;56.312;44.048;2024-03-06T10:52:58;4.55;;;1.80;;
38111;SDS011;64011;56.312;44.048;2024-03-06T10:55:00;4.53;;;1.80;;
38111;SDS011;64011;56.312;44.048;2024-03-06T10:57:01;6.43;;;2.05;;
38111;SDS011;64011;56.312;44.048;2024-03-06T10:59:04;15.35;;;2.35;;
38111;SDS011;64011;56.312;44.048;2024-03-06T11:01:05;7.78;;;1.88;;
38111;SDS011;64011;56.312;44.048;2024-03-06T11:03:10;5.40;;;1.80;;
38111;SDS011;64011;56.312;44.048;2024-03-06T11:05:10;5.13;;;1.58;;
38111;SDS011;64011;56.312;44.048;2024-03-06T11:07:11;6.57;;;2.25;;
38111;SDS011;64011;56.312;44.048;2024-03-06T11:09:12;6.45;;;1.80;;
38111;SDS011;64011;56.312;44.048;2024-03-06T11:11:20;7.38;;;2.38;;
38111;SDS011;64011;56.312;44.048;2024-03-06T11:13:22;9.40;;;2.15;;
38111;SDS011;64011;56.312;44.048;2024-03-06T11:15:25;6.03;;;1.80;;
38111;SDS011;64011;56.312;44.048;2024-03-06T11:17:25;4.55;;;1.85;;
38111;SDS011;64011;56.312;44.048;2024-03-06T11:19:26;5.05;;;1.70;;
38111;SDS011;64011;56.312;44.048;2024-03-06T11:21:28;4.43;;;1.60;;
38111;SDS011;64011;56.312;44.048;2024-03-06T11:23:30;7.30;;;1.80;;
38111;SDS011;64011;56.312;44.048;2024-03-06T11:28:02;7.65;;;2.00;;
38111;SDS011;64011;56.312;44.048;2024-03-06T11:30:06;5.47;;;1.60;;
38111;SDS011;64011;56.312;44.048;2024-03-06T11:32:09;6.05;;;1.48;;
38111;SDS011;64011;56.312;44.048;2024-03-06T11:34:11;2.72;;;1.30;;
38111;SDS011;64011;56.312;44.048;2024-03-06T11:36:12;4.40;;;1.58;;
38111;SDS011;64011;56.312;44.048;2024-03-06T11:38:16;6.28;;;1.60;;
38111;SDS011;64011;56.312;44.048;2024-03-06T11:40:19;4.95;;;1.70;;
38111;SDS011;64011;56.312;44.048;2024-03-06T11:42:32;4.82;;;1.40;;
38111;SDS011;64011;56.312;44.048;2024-03-06T11:44:34;5.65;;;1.67;;
38111;SDS011;64011;56.312;44.048;2024-03-06T11:46:42;5.13;;;1.80;;
38111;SDS011;64011;56.312;44.048;2024-03-06T11:48:44;6.93;;;2.00;;
38111;SDS011;64011;56.312;44.048;2024-03-06T11:50:52;5.25;;;1.55;;
38111;SDS011;64011;56.312;44.048;2024-03-06T11:52:53;6.82;;;1.98;;
38111;SDS011;64011;56.312;44.048;2024-03-06T11:54:54;10.68;;;2.17;;
38111;SDS011;64011;56.312;44.048;2024-03-06T11:56:56;7.43;;;2.08;;